Time;durP1;ratioP1;P1;durP2;ratioP2;P2;SDS_P1;SDS_P2;PMS_P1;PMS_P2;Temp;Humidity;BMP_temperature;BMP_pressure;BME280_temperature;BME280_humidity;BME280_pressure;Samples;Min_cycle;Max_cycle;Signal;HPM_P1;HPM_P2
2021/05/25 00:02:20;;;;;;;5.75;3.33;;;12.00;80.40;;;;;;5073098;28;20043;-85
2021/05/25 00:04:46;;;;;;;4.57;3.78;;;12.00;80.50;;;;;;5059046;28;20044;-82
2021/05/25 00:07:11;;;;;;;4.55;3.45;;;11.90;80.50;;;;;;5053710;28;20131;-83
2021/05/25 00:09:38;;;;;;;4.78;3.17;;;11.90;80.50;;;;;;5083891;28;20058;-82
2021/05/25 00:12:04;;;;;;;5.82;3.70;;;11.90;80.60;;;;;;5073999;28;20044;-83
2021/05/25 00:14:31;;;;;;;4.70;3.55;;;11.90;80.70;;;;;;5074197;28;20373;-83
2021/05/25 00:16:57;;;;;;;5.43;3.40;;;11.90;80.70;;;;;;5077911;28;20091;-83
2021/05/25 00:19:22;;;;;;;4.70;3.67;;;11.90;80.70;;;;;;5092762;28;20043;-86
2021/05/25 00:21:48;;;;;;;7.20;4.35;;;11.90;80.80;;;;;;5076847;28;20129;-83
2021/05/25 00:24:14;;;;;;;5.88;3.50;;;11.90;80.90;;;;;;5077582;28;20125;-83
2021/05/25 00:26:40;;;;;;;7.15;4.63;;;11.80;80.80;;;;;;5077509;28;20079;-83
2021/05/25 00:29:06;;;;;;;5.65;4.20;;;11.80;80.90;;;;;;5077294;28;20056;-83
2021/05/25 00:31:32;;;;;;;5.13;4.40;;;11.80;80.90;;;;;;5075205;28;20036;-80
2021/05/25 00:33:58;;;;;;;7.30;4.30;;;11.80;81.00;;;;;;5092828;28;20043;-81
2021/05/25 00:36:26;;;;;;;5.32;4.30;;;11.80;81.10;;;;;;5075782;28;20074;-84
2021/05/25 00:38:52;;;;;;;5.40;4.30;;;11.80;81.10;;;;;;5075641;28;20405;-82
2021/05/25 00:41:18;;;;;;;5.05;4.25;;;11.80;81.10;;;;;;5076068;28;20044;-82
2021/05/25 00:43:44;;;;;;;5.75;4.38;;;11.80;81.10;;;;;;5067323;28;20512;-82
2021/05/25 00:46:09;;;;;;;5.88;4.47;;;11.80;81.10;;;;;;5042298;28;20045;-80
2021/05/25 00:48:35;;;;;;;6.45;5.18;;;11.80;81.20;;;;;;5041228;28;20064;-85
2021/05/25 00:51:04;;;;;;;6.50;5.20;;;11.80;81.20;;;;;;5058617;28;20056;-82
2021/05/25 00:53:31;;;;;;;7.03;4.60;;;11.70;81.30;;;;;;5095600;28;20043;-83
2021/05/25 00:55:57;;;;;;;6.80;5.18;;;11.70;81.30;;;;;;5095708;28;20448;-83
2021/05/25 00:58:23;;;;;;;6.57;5.43;;;11.70;81.30;;;;;;5079082;28;20105;-84
2021/05/25 01:00:49;;;;;;;6.43;4.70;;;11.70;81.30;;;;;;5078213;28;20097;-82
2021/05/25 01:03:17;;;;;;;7.05;5.97;;;11.70;81.40;;;;;;5078812;28;20040;-81
2021/05/25 01:05:43;;;;;;;6.90;5.63;;;11.70;81.40;;;;;;5076033;28;20411;-83
2021/05/25 01:08:09;;;;;;;7.22;6.10;;;11.70;81.40;;;;;;5076034;28;20036;-83
2021/05/25 01:10:41;;;;;;;6.65;5.88;;;11.70;81.50;;;;;;5072859;28;20036;-82
2021/05/25 01:13:10;;;;;;;11.33;7.00;;;11.70;81.50;;;;;;5059680;28;20037;-83
2021/05/25 01:15:37;;;;;;;8.90;6.40;;;11.70;81.50;;;;;;5054732;28;20797;-83
2021/05/25 01:18:03;;;;;;;7.47;6.38;;;11.70;81.50;;;;;;5056888;28;20221;-82
2021/05/25 01:20:30;;;;;;;7.55;6.50;;;11.70;81.60;;;;;;5073586;28;20044;-86
2021/05/25 01:22:59;;;;;;;8.90;6.97;;;11.70;81.70;;;;;;5056695;28;20041;-83
2021/05/25 01:25:25;;;;;;;12.07;7.85;;;11.70;81.80;;;;;;5057428;28;20037;-83
2021/05/25 01:27:59;;;;;;;10.00;7.72;;;11.60;81.80;;;;;;5058859;28;20496;-84
2021/05/25 01:30:33;;;;;;;12.07;8.13;;;11.70;82.00;;;;;;5059876;28;20041;-84
2021/05/25 01:32:59;;;;;;;10.57;7.80;;;11.70;82.00;;;;;;5076904;28;20040;-83
2021/05/25 01:35:25;;;;;;;9.45;8.05;;;11.60;81.90;;;;;;5059991;28;20040;-83
2021/05/25 01:37:51;;;;;;;10.63;7.80;;;11.60;81.90;;;;;;5059555;28;20052;-83
2021/05/25 01:40:17;;;;;;;10.75;8.32;;;11.60;82.00;;;;;;5059878;28;20092;-83
2021/05/25 01:42:43;;;;;;;10.38;8.50;;;11.60;81.90;;;;;;5059067;28;20512;-82
2021/05/25 01:45:12;;;;;;;11.57;9.05;;;11.60;82.10;;;;;;5059525;28;20179;-82
2021/05/25 01:47:38;;;;;;;10.98;9.38;;;11.60;82.10;;;;;;5058855;28;20059;-83
2021/05/25 01:50:14;;;;;;;12.68;10.23;;;11.70;82.20;;;;;;5059849;28;20048;-82
2021/05/25 01:52:59;;;;;;;11.88;9.82;;;11.60;82.20;;;;;;5060195;28;20497;-85
2021/05/25 01:55:42;;;;;;;12.60;10.27;;;11.60;82.20;;;;;;5060216;28;20037;-82
2021/05/25 01:58:21;;;;;;;12.25;10.75;;;11.60;82.50;;;;;;5059507;28;20041;-81
2021/05/25 02:00:49;;;;;;;13.40;10.85;;;11.60;82.50;;;;;;5075106;28;20066;-80
2021/05/25 02:03:17;;;;;;;13.50;11.60;;;11.60;82.30;;;;;;5059758;28;20040;-83
2021/05/25 02:05:43;;;;;;;16.27;12.00;;;11.60;82.30;;;;;;5059884;28;20056;-81
2021/05/25 02:08:09;;;;;;;14.82;11.13;;;11.60;82.40;;;;;;5060117;28;20040;-82
2021/05/25 02:10:48;;;;;;;14.35;11.98;;;11.60;82.40;;;;;;5075826;28;20048;-86
2021/05/25 02:13:18;;;;;;;14.05;11.57;;;11.50;82.50;;;;;;5059647;28;20113;-83
2021/05/25 02:15:45;;;;;;;14.10;10.95;;;11.60;82.60;;;;;;5058541;28;20151;-83
2021/05/25 02:18:22;;;;;;;16.52;11.23;;;11.60;82.60;;;;;;5059041;28;20098;-81
2021/05/25 02:20:49;;;;;;;12.63;10.80;;;11.50;82.50;;;;;;5059649;28;20040;-83
2021/05/25 02:23:15;;;;;;;15.50;11.27;;;11.50;82.60;;;;;;5059377;28;20044;-82
2021/05/25 02:25:41;;;;;;;13.10;11.23;;;11.50;82.50;;;;;;5058137;28;20120;-84
2021/05/25 02:28:07;;;;;;;14.02;10.82;;;11.50;82.60;;;;;;5059353;28;20068;-83
2021/05/25 02:30:33;;;;;;;12.48;11.15;;;11.50;82.70;;;;;;5059543;28;20049;-83
2021/05/25 02:33:00;;;;;;;13.20;10.63;;;11.50;82.70;;;;;;5059524;28;20119;-84
2021/05/25 02:35:26;;;;;;;13.43;10.65;;;11.50;82.70;;;;;;5072295;28;20051;-85
2021/05/25 02:37:51;;;;;;;13.18;10.23;;;11.50;82.70;;;;;;5071234;28;20089;-84
2021/05/25 02:40:17;;;;;;;12.13;10.82;;;11.50;82.70;;;;;;5059740;28;20485;-82
2021/05/25 02:42:43;;;;;;;10.80;9.60;;;11.40;82.60;;;;;;5078176;28;20052;-86
2021/05/25 02:45:09;;;;;;;12.23;10.75;;;11.50;82.70;;;;;;5079372;28;20044;-82
2021/05/25 02:47:35;;;;;;;11.70;9.02;;;11.40;82.50;;;;;;5078821;28;20066;-83
2021/05/25 02:50:06;;;;;;;11.77;9.20;;;11.40;82.60;;;;;;5077872;28;20044;-80
2021/05/25 02:52:37;;;;;;;10.85;9.07;;;11.40;82.50;;;;;;5080916;28;20035;-83
2021/05/25 02:55:04;;;;;;;12.02;9.57;;;11.40;82.50;;;;;;5095703;28;20044;-82
2021/05/25 02:57:30;;;;;;;12.55;9.65;;;11.40;82.50;;;;;;5079667;28;20105;-80
2021/05/25 02:59:55;;;;;;;14.63;10.85;;;11.30;82.40;;;;;;5079896;28;20130;-84
2021/05/25 03:02:21;;;;;;;14.07;10.50;;;11.40;82.40;;;;;;5063710;28;20036;-84
2021/05/25 03:04:47;;;;;;;13.32;10.73;;;11.40;82.40;;;;;;5079115;28;20063;-84
2021/05/25 03:07:13;;;;;;;12.40;10.80;;;11.30;82.40;;;;;;5079439;28;20040;-81
2021/05/25 03:09:41;;;;;;;13.85;10.52;;;11.30;82.30;;;;;;5079435;28;20051;-83
2021/05/25 03:12:08;;;;;;;12.02;10.38;;;11.40;82.30;;;;;;5079197;28;20047;-83
2021/05/25 03:14:34;;;;;;;12.25;10.35;;;11.30;82.20;;;;;;5078943;28;20040;-83
2021/05/25 03:16:59;;;;;;;12.82;10.27;;;11.40;82.30;;;;;;5075928;28;20099;-82
2021/05/25 03:19:25;;;;;;;12.48;10.63;;;11.30;82.20;;;;;;5096149;28;20044;-82
2021/05/25 03:21:52;;;;;;;12.50;9.93;;;11.30;82.10;;;;;;5078424;28;20131;-84
2021/05/25 03:24:19;;;;;;;11.77;9.25;;;11.30;82.10;;;;;;5079322;28;20044;-84
2021/05/25 03:26:48;;;;;;;10.88;8.52;;;11.30;82.10;;;;;;5078916;28;20131;-86
2021/05/25 03:29:14;;;;;;;12.63;8.35;;;11.30;82.00;;;;;;5079652;28;20488;-84
2021/05/25 03:31:39;;;;;;;10.15;7.95;;;11.30;81.90;;;;;;5079414;28;20043;-81
2021/05/25 03:34:05;;;;;;;10.57;7.93;;;11.20;81.70;;;;;;5078780;28;20215;-82
2021/05/25 03:36:31;;;;;;;9.18;6.28;;;11.20;81.70;;;;;;5079685;28;20043;-85
2021/05/25 03:38:57;;;;;;;8.77;6.55;;;11.20;81.50;;;;;;5061190;28;20052;-82
2021/05/25 03:41:23;;;;;;;8.98;6.32;;;11.20;81.40;;;;;;5096679;28;20036;-81
2021/05/25 03:43:49;;;;;;;12.80;6.40;;;11.20;81.30;;;;;;5095383;28;20537;-85
2021/05/25 03:46:15;;;;;;;7.43;6.18;;;11.20;81.20;;;;;;5079013;28;20043;-82
2021/05/25 03:48:40;;;;;;;10.13;6.32;;;11.20;81.10;;;;;;5079843;28;20063;-79
2021/05/25 03:51:09;;;;;;;11.30;7.18;;;11.20;81.10;;;;;;5095084;28;20048;-78
2021/05/25 03:53:35;;;;;;;10.60;7.45;;;11.10;80.90;;;;;;5078924;28;20457;-82
2021/05/25 03:58:50;;;;;;;12.40;8.07;;;11.10;80.90;;;;;;5080151;28;20040;-83
2021/05/25 04:01:26;;;;;;;12.15;8.05;;;11.10;81.00;;;;;;5098529;28;20051;-82
2021/05/25 04:03:55;;;;;;;13.82;8.70;;;11.00;81.00;;;;;;5079621;28;20059;-84
2021/05/25 04:06:23;;;;;;;12.35;8.70;;;11.00;81.10;;;;;;5079889;28;20122;-82
2021/05/25 04:08:49;;;;;;;13.35;9.45;;;11.00;81.00;;;;;;5096005;28;20516;-82
2021/05/25 04:11:15;;;;;;;12.07;9.75;;;11.00;81.10;;;;;;5078768;28;20071;-81
2021/05/25 04:13:41;;;;;;;12.50;9.70;;;11.00;81.00;;;;;;5080339;28;20044;-83
2021/05/25 04:16:08;;;;;;;13.50;9.80;;;11.00;81.10;;;;;;5077631;28;20101;-83
2021/05/25 04:18:34;;;;;;;12.52;10.02;;;11.00;81.20;;;;;;5080662;28;20103;-84
2021/05/25 04:20:59;;;;;;;13.25;9.88;;;11.00;81.20;;;;;;5080233;28;20064;-82
2021/05/25 04:23:25;;;;;;;16.65;12.00;;;11.00;81.30;;;;;;5097565;28;20060;-84
2021/05/25 04:25:51;;;;;;;15.82;10.95;;;10.90;81.40;;;;;;5080710;28;20044;-81
2021/05/25 04:28:17;;;;;;;13.07;11.40;;;11.00;81.40;;;;;;5079980;28;20103;-85
2021/05/25 04:30:43;;;;;;;14.32;12.45;;;10.90;81.30;;;;;;5080639;28;20051;-84
2021/05/25 04:33:09;;;;;;;16.60;12.77;;;11.00;81.40;;;;;;5080197;28;20392;-84
2021/05/25 04:35:35;;;;;;;16.73;13.75;;;10.90;81.50;;;;;;5081123;28;20040;-84
2021/05/25 04:38:01;;;;;;;19.30;14.55;;;11.00;81.70;;;;;;5080346;28;20039;-83
2021/05/25 04:40:34;;;;;;;17.60;14.40;;;10.90;81.60;;;;;;5080496;28;20043;-79
2021/05/25 04:43:01;;;;;;;20.40;15.55;;;10.90;81.70;;;;;;5082343;28;20120;-84
2021/05/25 04:45:27;;;;;;;18.77;15.75;;;11.00;81.90;;;;;;5080851;28;20040;-82
2021/05/25 04:47:53;;;;;;;22.80;16.10;;;10.90;81.90;;;;;;5080293;28;20480;-83
2021/05/25 04:50:20;;;;;;;19.67;16.70;;;11.00;82.10;;;;;;5082823;28;20476;-82
2021/05/25 04:52:48;;;;;;;20.85;16.55;;;11.00;82.30;;;;;;5084675;28;20048;-82
2021/05/25 04:55:16;;;;;;;23.45;17.30;;;11.00;82.30;;;;;;5065970;28;20059;-82
2021/05/25 04:57:42;;;;;;;21.77;17.60;;;11.00;82.40;;;;;;5117676;28;20059;-82
2021/05/25 05:00:12;;;;;;;21.83;17.42;;;11.00;82.40;;;;;;5083921;28;20040;-83
2021/05/25 05:02:38;;;;;;;25.38;18.02;;;11.00;82.40;;;;;;5068305;28;20044;-82
2021/05/25 05:05:07;;;;;;;23.58;18.35;;;11.00;82.30;;;;;;5083576;28;20044;-82
2021/05/25 05:07:33;;;;;;;24.40;20.63;;;11.00;82.30;;;;;;5101425;28;20048;-81
2021/05/25 05:09:59;;;;;;;25.65;20.75;;;11.00;82.30;;;;;;5081505;28;20200;-83
2021/05/25 05:12:27;;;;;;;25.70;20.90;;;11.00;82.30;;;;;;5060954;28;20059;-81
2021/05/25 05:14:54;;;;;;;26.98;20.98;;;11.00;82.20;;;;;;5094857;28;20051;-83
2021/05/25 05:17:21;;;;;;;27.05;21.58;;;11.00;82.10;;;;;;5091833;28;20060;-81
2021/05/25 05:19:47;;;;;;;27.85;20.45;;;11.10;82.20;;;;;;5094522;28;20488;-83
2021/05/25 05:22:13;;;;;;;28.55;22.92;;;11.10;81.80;;;;;;5076836;28;20040;-84
2021/05/25 05:24:45;;;;;;;27.55;22.23;;;11.00;81.90;;;;;;5093921;28;20385;-83
2021/05/25 05:27:10;;;;;;;27.80;22.30;;;11.00;81.90;;;;;;5060751;28;20041;-84
2021/05/25 05:29:36;;;;;;;25.92;22.05;;;11.10;81.90;;;;;;5060465;28;20102;-79
2021/05/25 05:32:03;;;;;;;25.23;21.00;;;11.00;81.90;;;;;;5071183;28;20220;-85
2021/05/25 05:34:28;;;;;;;25.95;21.77;;;11.00;81.90;;;;;;5073168;28;20075;-81
2021/05/25 05:36:54;;;;;;;25.40;20.58;;;11.00;81.80;;;;;;5059743;28;20083;-81
2021/05/25 05:39:20;;;;;;;23.88;20.55;;;11.10;81.80;;;;;;5062118;28;20045;-81
2021/05/25 05:41:46;;;;;;;23.30;20.00;;;11.00;81.70;;;;;;5083374;28;20513;-80
2021/05/25 05:44:11;;;;;;;25.02;21.92;;;11.00;81.70;;;;;;5087394;28;20070;-82
2021/05/25 05:46:37;;;;;;;21.83;19.63;;;11.00;81.70;;;;;;5077295;28;20036;-82
2021/05/25 05:49:03;;;;;;;23.52;19.02;;;11.00;81.70;;;;;;5087450;28;20049;-82
2021/05/25 05:51:30;;;;;;;20.92;18.38;;;11.00;81.70;;;;;;5089682;28;20040;-82
2021/05/25 05:53:57;;;;;;;25.60;19.30;;;11.00;81.60;;;;;;5076753;28;20040;-83
2021/05/25 05:56:23;;;;;;;20.88;17.92;;;11.00;81.60;;;;;;5063104;28;20044;-83
2021/05/25 05:58:50;;;;;;;23.65;18.95;;;11.00;81.60;;;;;;5056972;28;20072;-80
2021/05/25 06:01:16;;;;;;;21.60;17.88;;;11.00;81.50;;;;;;5049527;28;20125;-82
2021/05/25 06:03:45;;;;;;;18.00;15.85;;;11.10;81.50;;;;;;5075960;28;20032;-82
2021/05/25 06:06:11;;;;;;;19.77;17.30;;;11.10;81.60;;;;;;5074083;28;20043;-77
2021/05/25 06:08:40;;;;;;;24.50;17.02;;;11.20;81.40;;;;;;5076514;28;20040;-81
2021/05/25 06:11:06;;;;;;;21.50;17.23;;;11.20;81.30;;;;;;5071071;28;20055;-80
2021/05/25 06:13:35;;;;;;;19.80;17.73;;;11.10;81.20;;;;;;5076014;28;20051;-79
2021/05/25 06:16:02;;;;;;;20.40;16.85;;;11.10;81.20;;;;;;5059955;28;20056;-83
2021/05/25 06:18:29;;;;;;;22.20;17.67;;;11.10;81.20;;;;;;5083938;28;20373;-75
2021/05/25 06:20:55;;;;;;;18.27;16.38;;;11.10;81.20;;;;;;5026374;28;20551;-82
2021/05/25 06:23:23;;;;;;;22.10;16.88;;;11.20;81.10;;;;;;5104718;28;20032;-82
2021/05/25 06:25:49;;;;;;;16.90;14.95;;;11.20;80.90;;;;;;5079912;28;20063;-86
2021/05/25 06:28:15;;;;;;;19.38;16.67;;;11.10;80.90;;;;;;5035197;28;20044;-83
2021/05/25 06:30:45;;;;;;;18.63;16.65;;;11.10;80.90;;;;;;5064996;28;20044;-78
2021/05/25 06:33:10;;;;;;;19.42;16.65;;;11.10;81.00;;;;;;5069464;28;20039;-81
2021/05/25 06:35:36;;;;;;;20.98;16.55;;;11.10;81.00;;;;;;5082645;28;20044;-81
2021/05/25 06:38:05;;;;;;;20.85;16.20;;;11.10;81.00;;;;;;5077691;28;20050;-83
2021/05/25 06:40:33;;;;;;;17.48;14.70;;;11.10;81.10;;;;;;5054221;28;20052;-82
2021/05/25 06:42:59;;;;;;;20.65;15.57;;;11.10;81.00;;;;;;5068243;28;20070;-85
2021/05/25 06:45:25;;;;;;;18.88;16.88;;;11.10;80.90;;;;;;5085560;28;20032;-86
2021/05/25 06:47:51;;;;;;;18.58;16.55;;;11.10;81.00;;;;;;5056467;28;20057;-84
2021/05/25 06:50:17;;;;;;;18.95;17.02;;;11.10;81.10;;;;;;5064686;28;20416;-84
2021/05/25 06:52:43;;;;;;;20.60;17.45;;;11.00;81.00;;;;;;5047263;28;20048;-83
2021/05/25 06:55:10;;;;;;;21.80;18.58;;;11.00;81.00;;;;;;5078938;28;20036;-77
2021/05/25 06:57:36;;;;;;;21.75;18.40;;;11.00;81.10;;;;;;5077504;28;20035;-85
2021/05/25 07:00:04;;;;;;;20.85;18.65;;;11.00;81.10;;;;;;5054647;28;20071;-84
2021/05/25 07:02:32;;;;;;;21.33;18.58;;;11.00;81.10;;;;;;5053857;28;20110;-86
2021/05/25 07:05:01;;;;;;;24.13;18.00;;;10.90;81.10;;;;;;5071207;28;20480;-87
2021/05/25 07:07:27;;;;;;;20.15;17.70;;;11.00;81.20;;;;;;5070780;28;20123;-87
2021/05/25 07:09:52;;;;;;;20.10;18.05;;;10.90;81.20;;;;;;5053230;28;20479;-82
2021/05/25 07:12:18;;;;;;;20.40;18.23;;;11.00;81.30;;;;;;5055283;28;20044;-83
2021/05/25 07:14:45;;;;;;;20.08;17.58;;;11.00;81.40;;;;;;5087353;28;20063;-87
2021/05/25 07:17:13;;;;;;;18.33;16.38;;;11.00;81.40;;;;;;5059178;28;20098;-84
2021/05/25 07:19:39;;;;;;;20.77;17.63;;;11.00;81.40;;;;;;5071450;28;20036;-83
2021/05/25 07:22:05;;;;;;;20.67;17.38;;;11.00;81.40;;;;;;5080927;28;20256;-87
2021/05/25 07:24:31;;;;;;;18.67;16.13;;;11.00;81.30;;;;;;5070852;28;20123;-86
2021/05/25 07:26:57;;;;;;;23.42;18.00;;;11.00;81.30;;;;;;5083665;28;20048;-85
2021/05/25 07:29:23;;;;;;;21.33;17.65;;;11.10;81.30;;;;;;5063036;28;20404;-86
2021/05/25 07:31:49;;;;;;;22.58;19.83;;;11.10;81.20;;;;;;5086232;28;20048;-87
2021/05/25 07:34:15;;;;;;;18.95;16.95;;;11.10;81.10;;;;;;5066428;28;20396;-85
2021/05/25 07:36:41;;;;;;;20.88;16.67;;;11.20;81.10;;;;;;5070266;28;20116;-86
2021/05/25 07:39:06;;;;;;;19.77;17.67;;;11.20;80.90;;;;;;5065251;28;20067;-82
2021/05/25 07:41:33;;;;;;;20.77;18.58;;;11.20;80.90;;;;;;5046224;28;20044;-84
2021/05/25 07:43:59;;;;;;;23.25;19.27;;;11.30;81.00;;;;;;5068619;28;20040;-82
2021/05/25 07:46:27;;;;;;;20.67;18.27;;;11.30;81.00;;;;;;5091531;28;20032;-85
2021/05/25 07:48:53;;;;;;;18.77;16.02;;;11.30;81.00;;;;;;5059473;28;20048;-82
2021/05/25 07:51:19;;;;;;;21.77;17.80;;;11.20;80.90;;;;;;5108842;28;20472;-85
2021/05/25 07:53:45;;;;;;;20.08;17.45;;;11.30;81.10;;;;;;5074016;28;20072;-83
2021/05/25 07:56:14;;;;;;;20.45;16.75;;;11.30;81.10;;;;;;5075378;28;20121;-81
2021/05/25 07:58:40;;;;;;;21.25;17.15;;;11.30;81.10;;;;;;5089909;28;20488;-80
2021/05/25 08:01:06;;;;;;;19.95;14.40;;;11.30;81.00;;;;;;5057920;28;20047;-83
2021/05/25 08:03:34;;;;;;;19.27;16.95;;;11.50;81.80;;;;;;5081430;28;20047;-86
2021/05/25 08:06:03;;;;;;;21.30;17.33;;;11.50;81.10;;;;;;5072599;28;20560;-86
2021/05/25 08:08:32;;;;;;;22.15;18.00;;;11.50;80.80;;;;;;5067261;28;20389;-85
2021/05/25 08:10:58;;;;;;;19.40;16.60;;;11.50;80.70;;;;;;5070863;28;20048;-82
2021/05/25 08:13:25;;;;;;;19.15;15.45;;;11.50;80.70;;;;;;5068468;28;20403;-85
2021/05/25 08:15:54;;;;;;;12.40;11.00;;;11.40;81.10;;;;;;5063176;28;20060;-81
2021/05/25 08:21:05;;;;;;;12.05;8.43;;;11.40;81.40;;;;;;5059366;28;20527;-87
2021/05/25 08:23:31;;;;;;;8.55;6.40;;;11.30;81.50;;;;;;5067974;28;20146;-86
2021/05/25 08:25:57;;;;;;;10.98;6.32;;;11.30;81.50;;;;;;5058050;28;20075;-86
2021/05/25 08:28:23;;;;;;;8.02;6.03;;;11.20;81.50;;;;;;5038273;28;20040;-84
2021/05/25 08:30:49;;;;;;;6.72;5.57;;;11.20;81.50;;;;;;5054269;28;20052;-87
2021/05/25 08:33:16;;;;;;;6.57;5.88;;;11.20;81.70;;;;;;5071054;28;20043;-86
2021/05/25 08:35:42;;;;;;;8.23;5.32;;;11.10;81.60;;;;;;5053721;28;20102;-84
2021/05/25 08:38:09;;;;;;;6.28;5.05;;;11.20;81.70;;;;;;5053858;28;20071;-87
2021/05/25 08:40:35;;;;;;;6.30;4.90;;;11.10;81.70;;;;;;5053674;28;20043;-84
2021/05/25 08:43:04;;;;;;;6.18;4.55;;;11.20;81.80;;;;;;5053957;28;20117;-85
2021/05/25 08:45:30;;;;;;;5.50;4.18;;;11.20;81.80;;;;;;5053610;28;20049;-86
2021/05/25 08:47:56;;;;;;;6.30;4.07;;;11.20;81.70;;;;;;5053455;28;20056;-85
2021/05/25 08:50:26;;;;;;;5.72;3.70;;;11.20;81.70;;;;;;5053713;28;20349;-85
2021/05/25 08:53:00;;;;;;;4.95;3.90;;;11.30;81.70;;;;;;5061953;28;20930;-87
2021/05/25 08:55:28;;;;;;;5.68;4.18;;;11.20;81.70;;;;;;5067721;28;20127;-86
2021/05/25 08:57:55;;;;;;;7.38;3.92;;;11.20;81.70;;;;;;5076526;28;20044;-87
2021/05/25 09:00:21;;;;;;;7.20;3.67;;;11.20;81.80;;;;;;5063352;28;20041;-87
2021/05/25 09:02:47;;;;;;;5.30;3.20;;;11.20;81.80;;;;;;5032375;28;20091;-87
2021/05/25 09:05:15;;;;;;;4.20;2.70;;;11.20;81.70;;;;;;5051607;28;20456;-87
2021/05/25 09:07:44;;;;;;;5.68;2.85;;;11.20;81.70;;;;;;5052099;28;20040;-86
2021/05/25 09:10:24;;;;;;;5.10;2.78;;;11.20;81.80;;;;;;5074597;28;20055;-85
2021/05/25 09:12:52;;;;;;;4.22;2.45;;;11.20;81.80;;;;;;5089729;28;20093;-85
2021/05/25 09:15:35;;;;;;;2.45;1.77;;;11.20;81.80;;;;;;5057247;28;20537;-85
2021/05/25 09:18:01;;;;;;;;;;;11.30;82.00;;;;;;5069803;28;20048;-86
2021/05/25 09:20:37;;;;;;;2.75;1.80;;;11.30;82.20;;;;;;5090349;28;19920;-88
2021/05/25 09:23:03;;;;;;;3.42;2.13;;;11.30;81.50;;;;;;5073564;28;20481;-86
2021/05/25 09:25:30;;;;;;;3.53;2.38;;;11.40;81.40;;;;;;5056531;28;20055;-82
2021/05/25 09:30:52;;;;;;;3.70;2.10;;;11.50;81.40;;;;;;5084792;28;20477;-84
2021/05/25 09:33:20;;;;;;;2.35;1.90;;;11.50;81.20;;;;;;5089610;28;20044;-83
2021/05/25 09:35:48;;;;;;;2.35;1.75;;;11.60;81.00;;;;;;5072186;28;20127;-83
2021/05/25 09:38:17;;;;;;;4.97;3.53;;;11.60;80.90;;;;;;5094534;28;20059;-83
2021/05/25 09:40:54;;;;;;;5.90;4.25;;;11.80;81.20;;;;;;5091346;28;20043;-84
2021/05/25 09:43:22;;;;;;;5.53;2.75;;;12.10;81.80;;;;;;5088091;28;20043;-84
2021/05/25 09:46:08;;;;;;;5.40;3.00;;;12.20;80.90;;;;;;5040006;28;20064;-83
2021/05/25 09:48:43;;;;;;;4.25;2.42;;;12.40;81.30;;;;;;5083370;28;20092;-86
2021/05/25 09:51:22;;;;;;;6.78;2.55;;;12.60;81.00;;;;;;5089164;28;20159;-82
2021/05/25 09:53:50;;;;;;;6.07;2.30;;;12.70;81.50;;;;;;5078046;28;20055;-83
2021/05/25 09:56:27;;;;;;;3.88;2.60;;;12.90;80.80;;;;;;5062405;28;20485;-81
2021/05/25 09:58:53;;;;;;;4.95;3.13;;;13.10;81.50;;;;;;5060488;28;20127;-85
2021/05/25 10:01:36;;;;;;;4.05;2.58;;;13.30;80.90;;;;;;5067696;28;20036;-82
2021/05/25 10:04:19;;;;;;;4.75;3.75;;;13.50;80.60;;;;;;5092399;28;20044;-82
2021/05/25 10:06:48;;;;;;;7.50;4.82;;;13.70;80.40;;;;;;5060940;28;20051;-84
2021/05/25 10:09:14;;;;;;;6.05;4.60;;;13.90;80.00;;;;;;5075983;28;20072;-84
2021/05/25 10:11:44;;;;;;;7.60;5.43;;;14.00;79.30;;;;;;5059772;28;20160;-84
2021/05/25 10:14:13;;;;;;;8.70;4.82;;;14.10;79.00;;;;;;5076910;28;20047;-86
2021/05/25 10:16:43;;;;;;;7.60;5.13;;;14.10;78.70;;;;;;5078993;28;20047;-83
2021/05/25 10:21:42;;;;;;;10.77;6.88;;;14.20;78.10;;;;;;5096716;28;20051;-84
2021/05/25 10:24:08;;;;;;;9.13;7.28;;;14.10;77.90;;;;;;5079927;28;20115;-84
2021/05/25 10:26:35;;;;;;;9.60;7.55;;;14.10;77.80;;;;;;5098132;28;20484;-87
2021/05/25 10:29:04;;;;;;;7.75;7.05;;;14.00;77.70;;;;;;5083289;28;20048;-85
2021/05/25 10:31:33;;;;;;;12.45;7.55;;;14.00;77.60;;;;;;5065891;28;20044;-85
2021/05/25 10:34:16;;;;;;;9.77;7.10;;;14.00;77.60;;;;;;5097361;28;20038;-86
2021/05/25 10:36:54;;;;;;;9.05;8.15;;;14.00;77.60;;;;;;5081658;28;20071;-83
2021/05/25 10:39:37;;;;;;;11.63;7.80;;;14.00;77.80;;;;;;5083122;28;20048;-83
2021/05/25 10:42:35;;;;;;;10.30;7.93;;;14.10;77.80;;;;;;5098157;28;20162;-83
2021/05/25 10:45:04;;;;;;;10.10;7.45;;;14.10;77.40;;;;;;5082755;28;20058;-80
2021/05/25 10:47:36;;;;;;;8.73;7.78;;;14.10;77.20;;;;;;5095183;28;20062;-79
2021/05/25 10:52:59;;;;;;;7.75;6.25;;;14.00;76.90;;;;;;5092212;28;20040;-80
2021/05/25 10:55:26;;;;;;;9.93;6.90;;;13.90;76.70;;;;;;5082368;28;20171;-79
2021/05/25 10:57:52;;;;;;;12.27;7.32;;;13.90;77.10;;;;;;5060375;28;20048;-82
2021/05/25 11:00:19;;;;;;;9.18;7.43;;;14.10;77.70;;;;;;5099039;28;20104;-82
2021/05/25 11:03:04;;;;;;;8.57;7.68;;;14.20;77.90;;;;;;5083453;28;20097;-81
2021/05/25 11:05:34;;;;;;;11.68;7.47;;;14.30;77.90;;;;;;5066680;28;20052;-84
2021/05/25 11:08:14;;;;;;;10.80;7.18;;;14.40;77.80;;;;;;5098781;28;20114;-87
2021/05/25 11:10:46;;;;;;;11.57;7.05;;;14.40;77.40;;;;;;5091732;28;20036;-86
2021/05/25 11:13:17;;;;;;;7.72;5.40;;;14.40;77.10;;;;;;5090673;28;20036;-85
2021/05/25 11:18:48;;;;;;;5.72;2.42;;;14.30;75.80;;;;;;5092172;28;20602;-87
2021/05/25 11:22:04;;;;;;;6.28;2.50;;;14.10;75.80;;;;;;5073950;28;21180;-85
2021/05/25 11:24:50;;;;;;;6.03;2.25;;;13.90;75.00;;;;;;5108588;28;20121;-92
2021/05/25 11:27:42;;;;;;;6.28;2.92;;;13.70;76.00;;;;;;5103431;28;20040;-87
2021/05/25 11:30:21;;;;;;;6.25;2.55;;;13.60;75.90;;;;;;5089606;28;20052;-86
2021/05/25 11:32:47;;;;;;;6.50;1.70;;;13.40;76.70;;;;;;5071556;28;20118;-85
2021/05/25 11:35:18;;;;;;;5.88;2.58;;;13.40;77.10;;;;;;5085580;28;20047;-86
2021/05/25 11:37:45;;;;;;;5.40;2.50;;;13.30;76.90;;;;;;5089953;28;20044;-84
2021/05/25 11:40:13;;;;;;;3.28;1.52;;;13.20;76.80;;;;;;5086558;28;20119;-86
2021/05/25 11:42:38;;;;;;;4.25;1.92;;;13.10;76.90;;;;;;5057522;28;20044;-85
2021/05/25 11:45:08;;;;;;;3.80;2.00;;;13.10;77.00;;;;;;5075310;28;20101;-83
2021/05/25 11:47:34;;;;;;;3.33;1.92;;;13.00;77.10;;;;;;5061867;28;20477;-83
2021/05/25 11:50:00;;;;;;;4.38;1.50;;;13.00;77.20;;;;;;5066148;28;20043;-85
2021/05/25 11:52:31;;;;;;;7.45;2.10;;;12.90;77.30;;;;;;5083363;28;20036;-85
2021/05/25 11:55:15;;;;;;;2.75;1.15;;;12.90;77.30;;;;;;5052123;28;20052;-85
2021/05/25 11:57:42;;;;;;;1.63;1.02;;;12.90;77.20;;;;;;5070048;28;20048;-88
2021/05/25 12:00:10;;;;;;;3.53;1.58;;;12.90;77.30;;;;;;5065371;28;20044;-87
2021/05/25 12:02:35;;;;;;;2.03;1.10;;;13.00;77.20;;;;;;5081721;28;20036;-86
2021/05/25 12:05:11;;;;;;;2.95;1.60;;;13.00;77.10;;;;;;5063365;28;20050;-85
2021/05/25 12:07:39;;;;;;;3.67;1.30;;;13.10;76.90;;;;;;5083276;28;20056;-83
2021/05/25 12:10:12;;;;;;;2.22;1.17;;;13.20;76.60;;;;;;5027448;28;20052;-82
2021/05/25 12:12:43;;;;;;;1.98;1.40;;;13.30;76.70;;;;;;5069533;28;20032;-85
2021/05/25 12:15:14;;;;;;;3.13;1.58;;;13.50;76.80;;;;;;5050403;28;20130;-84
2021/05/25 12:17:41;;;;;;;5.00;1.95;;;13.60;76.80;;;;;;5067702;28;20052;-86
2021/05/25 12:20:15;;;;;;;4.22;1.77;;;13.70;76.40;;;;;;5066703;28;20499;-86
2021/05/25 12:22:41;;;;;;;4.05;2.00;;;13.70;76.20;;;;;;5066566;28;20107;-85
2021/05/25 12:25:19;;;;;;;3.90;2.10;;;13.70;76.00;;;;;;5055445;28;20131;-86
2021/05/25 12:27:49;;;;;;;4.38;1.83;;;13.70;76.00;;;;;;5078496;28;20040;-84
2021/05/25 12:30:16;;;;;;;4.18;1.88;;;13.70;76.20;;;;;;5043834;28;20048;-89
2021/05/25 12:32:46;;;;;;;5.15;1.90;;;13.60;76.30;;;;;;5047630;28;20063;-84
2021/05/25 12:35:15;;;;;;;3.00;2.30;;;13.50;76.40;;;;;;5078633;28;20060;-87
2021/05/25 12:37:41;;;;;;;3.35;1.73;;;13.50;76.70;;;;;;5085136;28;20032;-84
2021/05/25 12:40:09;;;;;;;6.70;1.88;;;13.40;76.90;;;;;;5063257;28;20123;-85
2021/05/25 12:42:41;;;;;;;4.82;2.47;;;13.30;77.20;;;;;;5080233;28;20051;-76
2021/05/25 12:45:12;;;;;;;4.63;1.80;;;13.30;77.70;;;;;;5074703;28;20047;-76
2021/05/25 12:47:55;;;;;;;4.43;1.63;;;13.40;77.90;;;;;;5073408;28;20072;-76
2021/05/25 12:50:36;;;;;;;3.20;2.10;;;13.40;77.50;;;;;;5091201;28;20071;-78
2021/05/25 12:53:06;;;;;;;5.15;1.88;;;13.40;78.80;;;;;;5089917;28;20045;-77
2021/05/25 12:55:33;;;;;;;4.90;1.88;;;13.50;77.70;;;;;;5090469;28;20117;-79
2021/05/25 12:57:59;;;;;;;2.72;1.70;;;13.40;77.40;;;;;;5073114;28;20045;-77
2021/05/25 13:00:31;;;;;;;13.40;6.15;;;13.30;77.30;;;;;;5092855;28;20587;-78
2021/05/25 13:02:58;;;;;;;3.67;2.00;;;13.40;77.90;;;;;;5085674;28;20044;-80